createdAt,value
2019-01-27T00:01:21.324Z,11.80
2019-01-27T00:03:50.460Z,11.43
2019-01-27T00:06:19.713Z,11.73
2019-01-27T00:08:48.888Z,11.27
2019-01-27T00:11:18.037Z,10.93
2019-01-27T00:13:47.237Z,10.10
2019-01-27T00:16:16.622Z,10.80
2019-01-27T00:18:45.985Z,9.97
2019-01-27T00:21:15.171Z,10.07
2019-01-27T00:23:44.428Z,9.30
2019-01-27T00:26:13.729Z,10.47
2019-01-27T00:28:42.838Z,9.53
2019-01-27T00:31:12.023Z,9.40
2019-01-27T00:33:41.187Z,9.63
2019-01-27T00:36:10.450Z,9.10
2019-01-27T00:38:39.720Z,9.17
2019-01-27T00:41:08.942Z,10.23
2019-01-27T00:43:38.078Z,7.33
2019-01-27T00:46:07.204Z,9.50
2019-01-27T00:48:36.495Z,7.93
2019-01-27T00:51:05.752Z,8.50
2019-01-27T00:53:35.018Z,9.40
2019-01-27T00:56:04.161Z,10.17
2019-01-27T00:58:33.302Z,9.80
2019-01-27T01:01:02.541Z,9.80
2019-01-27T01:03:31.859Z,8.80
2019-01-27T01:06:00.983Z,9.33
2019-01-27T01:08:30.178Z,8.97
2019-01-27T01:10:59.614Z,9.83
2019-01-27T01:13:28.779Z,8.53
2019-01-27T01:15:57.978Z,8.60
2019-01-27T01:18:27.412Z,7.83
2019-01-27T01:20:56.652Z,7.13
2019-01-27T01:23:25.875Z,7.30
2019-01-27T01:25:55.032Z,7.37
2019-01-27T01:28:24.368Z,7.70
2019-01-27T01:30:53.505Z,6.50
2019-01-27T01:33:22.676Z,6.90
2019-01-27T01:35:51.874Z,5.90
2019-01-27T01:38:21.166Z,6.57
2019-01-27T01:40:50.397Z,6.10
2019-01-27T01:43:19.747Z,6.37
2019-01-27T01:45:48.889Z,6.37
2019-01-27T01:48:18.053Z,7.20
2019-01-27T01:50:47.172Z,6.40
2019-01-27T01:53:16.338Z,6.47
2019-01-27T01:55:45.465Z,6.50
2019-01-27T01:58:14.704Z,6.80
2019-01-27T02:00:43.880Z,6.80
2019-01-27T02:03:13.034Z,7.27
2019-01-27T02:05:42.191Z,7.20
2019-01-27T02:08:11.471Z,7.50
2019-01-27T02:10:40.675Z,7.60
2019-01-27T02:13:09.822Z,7.80
2019-01-27T02:16:05.182Z,8.30
2019-01-27T02:18:34.749Z,7.43
2019-01-27T02:21:04.242Z,7.83
2019-01-27T02:23:33.361Z,7.47
2019-01-27T02:26:02.473Z,6.97
2019-01-27T02:28:31.844Z,7.30
2019-01-27T02:31:01.078Z,8.47
2019-01-27T02:33:30.281Z,7.40
2019-01-27T02:35:59.442Z,7.70
2019-01-27T02:38:28.556Z,8.00
2019-01-27T02:40:57.725Z,7.10
2019-01-27T02:43:26.925Z,7.50
2019-01-27T02:45:56.083Z,8.80
2019-01-27T02:48:25.357Z,7.63
2019-01-27T02:50:54.620Z,7.73
2019-01-27T02:53:23.887Z,7.60
2019-01-27T02:55:53.053Z,6.73
2019-01-27T02:58:22.403Z,6.87
2019-01-27T03:00:51.695Z,7.00
2019-01-27T03:03:21.549Z,7.77
2019-01-27T03:06:09.716Z,7.10
2019-01-27T03:08:57.882Z,7.27
2019-01-27T03:11:27.026Z,6.97
2019-01-27T03:13:56.197Z,7.17
2019-01-27T03:16:25.315Z,6.60
2019-01-27T03:18:54.495Z,7.53
2019-01-27T03:21:23.627Z,7.23
2019-01-27T03:23:52.801Z,7.93
2019-01-27T03:26:21.936Z,7.83
2019-01-27T03:28:51.049Z,7.87
2019-01-27T03:31:20.199Z,8.03
2019-01-27T03:33:49.326Z,7.90
2019-01-27T03:36:19.447Z,7.83
2019-01-27T03:38:48.618Z,9.17
2019-01-27T03:41:17.743Z,8.67
2019-01-27T03:43:47.111Z,9.23
2019-01-27T03:46:16.245Z,8.43
2019-01-27T03:48:45.348Z,8.30
2019-01-27T03:51:14.506Z,7.13
2019-01-27T03:53:43.624Z,7.43
2019-01-27T03:56:12.744Z,7.47
2019-01-27T03:58:41.921Z,6.97
2019-01-27T04:01:11.453Z,7.30
2019-01-27T04:03:40.571Z,7.00
2019-01-27T04:06:09.836Z,6.63
2019-01-27T04:08:38.963Z,6.67
2019-01-27T04:11:08.097Z,6.47
2019-01-27T04:13:37.357Z,6.70
2019-01-27T04:16:06.481Z,6.93
2019-01-27T04:18:35.624Z,7.03
2019-01-27T04:21:04.784Z,6.53
2019-01-27T04:23:33.946Z,6.93
2019-01-27T04:26:03.111Z,7.33
2019-01-27T04:28:32.249Z,6.47
2019-01-27T04:31:01.431Z,6.83
2019-01-27T04:33:31.668Z,7.40
2019-01-27T04:36:00.814Z,6.43
2019-01-27T04:38:29.982Z,6.90
2019-01-27T04:40:59.613Z,6.77
2019-01-27T04:43:28.748Z,6.20
2019-01-27T04:45:58.259Z,6.93
2019-01-27T04:48:27.396Z,5.90
2019-01-27T04:50:56.538Z,6.40
2019-01-27T04:53:25.700Z,6.23
2019-01-27T04:55:54.857Z,7.93
2019-01-27T04:58:23.970Z,6.07
2019-01-27T05:00:53.085Z,5.63
2019-01-27T05:03:39.835Z,5.60
2019-01-27T05:06:09.074Z,5.73
2019-01-27T05:08:38.232Z,5.23
2019-01-27T05:11:07.358Z,5.07
2019-01-27T05:13:36.509Z,5.40
2019-01-27T05:16:05.999Z,6.30
2019-01-27T05:18:35.140Z,6.07
2019-01-27T05:21:04.366Z,6.60
2019-01-27T05:23:33.539Z,5.23
2019-01-27T05:26:02.654Z,4.73
2019-01-27T05:28:31.813Z,5.27
2019-01-27T05:31:01.575Z,5.80
2019-01-27T05:33:30.698Z,6.27
2019-01-27T05:35:59.854Z,4.77
2019-01-27T05:38:29.006Z,5.60
2019-01-27T05:40:58.183Z,7.60
2019-01-27T05:43:27.423Z,5.30
2019-01-27T05:45:56.548Z,6.73
2019-01-27T05:48:25.765Z,5.77
2019-01-27T05:50:54.894Z,5.60
2019-01-27T05:53:24.012Z,5.90
2019-01-27T05:55:53.177Z,6.23
2019-01-27T05:58:22.348Z,5.73
2019-01-27T06:00:51.494Z,5.63
2019-01-27T06:03:20.630Z,5.37
2019-01-27T06:05:49.819Z,6.00
2019-01-27T06:08:18.977Z,6.10
2019-01-27T06:10:48.102Z,5.80
2019-01-27T06:13:17.244Z,6.60
2019-01-27T06:15:46.402Z,6.07
2019-01-27T06:18:15.571Z,6.50
2019-01-27T06:20:44.714Z,7.57
2019-01-27T06:23:13.863Z,9.63
2019-01-27T06:25:43.044Z,6.87
2019-01-27T06:28:12.168Z,5.97
2019-01-27T06:30:41.326Z,6.67
2019-01-27T06:33:18.254Z,7.90
2019-01-27T06:35:47.365Z,6.67
2019-01-27T06:38:16.666Z,7.37
2019-01-27T06:40:45.825Z,7.27
2019-01-27T06:43:14.985Z,6.90
2019-01-27T06:45:44.129Z,7.00
2019-01-27T06:48:13.294Z,7.40
2019-01-27T06:50:42.455Z,6.97
2019-01-27T06:53:11.622Z,7.53
2019-01-27T06:55:40.745Z,6.27
2019-01-27T06:58:10.092Z,6.50
2019-01-27T07:00:47.678Z,6.70
2019-01-27T07:03:23.286Z,6.60
2019-01-27T07:06:14.609Z,6.83
2019-01-27T07:09:02.578Z,5.63
2019-01-27T07:11:50.700Z,4.80
2019-01-27T07:14:41.919Z,7.47
2019-01-27T07:17:34.429Z,4.97
2019-01-27T07:20:19.447Z,8.73
2019-01-27T07:23:19.737Z,6.20
2019-01-27T07:26:23.450Z,6.43
2019-01-27T07:29:07.500Z,4.13
2019-01-27T07:31:55.579Z,4.90
2019-01-27T07:34:43.666Z,6.57
2019-01-27T07:37:34.705Z,5.50
2019-01-27T07:40:10.888Z,6.10
2019-01-27T07:43:07.967Z,4.20
2019-01-27T07:45:54.708Z,6.10
2019-01-27T07:48:48.547Z,5.67
2019-01-27T07:51:35.084Z,5.97
2019-01-27T07:54:20.844Z,4.27
2019-01-27T07:57:07.608Z,5.30
2019-01-27T07:59:57.641Z,7.13
2019-01-27T08:02:34.779Z,4.87
2019-01-27T08:05:28.980Z,5.17
2019-01-27T08:08:17.093Z,5.73
2019-01-27T08:11:14.134Z,6.03
2019-01-27T08:14:12.893Z,3.90
2019-01-27T08:17:04.513Z,5.17
2019-01-27T08:19:56.222Z,5.47
2019-01-27T08:22:31.719Z,3.90
2019-01-27T08:25:22.703Z,7.40
2019-01-27T08:28:13.770Z,6.70
2019-01-27T08:30:53.488Z,3.50
2019-01-27T08:33:48.019Z,6.67
2019-01-27T08:36:35.039Z,5.40
2019-01-27T08:39:25.428Z,5.07
2019-01-27T08:42:11.899Z,5.43
2019-01-27T08:45:12.446Z,6.40
2019-01-27T08:47:41.642Z,6.40
2019-01-27T08:50:16.089Z,6.90
2019-01-27T08:52:45.333Z,4.13
2019-01-27T08:55:15.564Z,4.47
2019-01-27T08:57:44.734Z,6.07
2019-01-27T09:00:23.819Z,8.13
2019-01-27T09:03:14.868Z,4.47
2019-01-27T09:06:06.229Z,5.60
2019-01-27T09:09:12.235Z,4.93
2019-01-27T09:12:09.442Z,5.97
2019-01-27T09:14:56.158Z,5.63
2019-01-27T09:17:35.978Z,5.93
2019-01-27T09:20:26.903Z,3.80
2019-01-27T09:23:33.199Z,6.93
2019-01-27T09:26:12.882Z,5.43
2019-01-27T09:28:48.255Z,5.87
2019-01-27T09:31:25.700Z,6.20
2019-01-27T09:34:13.326Z,5.23
2019-01-27T09:37:10.595Z,8.63
2019-01-27T09:39:58.672Z,4.30
2019-01-27T09:42:59.371Z,8.30
2019-01-27T09:46:05.251Z,4.53
2019-01-27T09:48:42.408Z,7.03
2019-01-27T09:51:42.577Z,7.87
2019-01-27T09:54:39.834Z,7.73
2019-01-27T09:57:30.354Z,9.17
2019-01-27T10:00:24.486Z,5.63
2019-01-27T10:03:30.716Z,7.87
2019-01-27T10:06:08.529Z,4.37
2019-01-27T10:08:52.535Z,5.67
2019-01-27T10:11:40.696Z,4.03
2019-01-27T10:14:35.038Z,4.33
2019-01-27T10:17:26.402Z,4.97
2019-01-27T10:20:05.463Z,4.70
2019-01-27T10:22:59.167Z,3.60
2019-01-27T10:25:50.294Z,6.33
2019-01-27T10:28:47.205Z,4.23
2019-01-27T10:31:33.998Z,3.40
2019-01-27T10:34:22.118Z,6.07
2019-01-27T10:37:02.484Z,6.13
2019-01-27T10:39:46.970Z,5.00
2019-01-27T10:42:53.977Z,5.83
2019-01-27T10:45:51.679Z,6.30
2019-01-27T10:48:39.736Z,5.10
2019-01-27T10:51:42.736Z,5.40
2019-01-27T10:54:21.652Z,2.77
2019-01-27T10:57:02.088Z,4.00
2019-01-27T10:59:55.606Z,3.97
2019-01-27T11:02:37.247Z,4.97
2019-01-27T11:05:26.187Z,6.47
2019-01-27T11:08:17.011Z,7.33
2019-01-27T11:10:58.549Z,6.33
2019-01-27T11:13:44.997Z,4.33
2019-01-27T11:16:36.133Z,6.10
2019-01-27T11:19:36.212Z,5.97
2019-01-27T11:22:27.431Z,5.63
2019-01-27T11:25:14.182Z,6.27
2019-01-27T11:27:58.554Z,6.00
2019-01-27T11:30:46.651Z,5.90
2019-01-27T11:33:40.916Z,6.73
2019-01-27T11:36:39.215Z,4.77
2019-01-27T11:39:30.051Z,5.60
2019-01-27T11:42:10.209Z,5.43
2019-01-27T11:44:55.330Z,4.93
2019-01-27T11:47:52.225Z,7.67
2019-01-27T11:50:33.336Z,4.70
2019-01-27T11:53:05.808Z,4.57
2019-01-27T11:55:34.957Z,4.80
2019-01-27T11:58:04.734Z,5.77
2019-01-27T12:00:37.577Z,5.73
2019-01-27T12:03:06.747Z,5.30
2019-01-27T12:05:39.761Z,6.43
2019-01-27T12:08:09.190Z,6.70
2019-01-27T12:10:40.423Z,5.97
2019-01-27T12:13:09.637Z,7.10
2019-01-27T12:15:38.881Z,7.07
2019-01-27T12:18:08.088Z,8.17
2019-01-27T12:20:37.273Z,7.40
2019-01-27T12:23:06.441Z,9.33
2019-01-27T12:25:35.648Z,7.00
2019-01-27T12:28:04.919Z,9.17
2019-01-27T12:30:34.207Z,6.03
2019-01-27T12:33:03.345Z,7.97
2019-01-27T12:35:32.522Z,8.27
2019-01-27T12:38:02.442Z,8.37
2019-01-27T12:40:31.725Z,7.13
2019-01-27T12:43:03.011Z,6.03
2019-01-27T12:45:32.291Z,5.40
2019-01-27T12:48:02.111Z,6.37
2019-01-27T12:50:31.333Z,8.00
2019-01-27T12:53:00.504Z,6.70
2019-01-27T12:55:29.767Z,6.50
2019-01-27T12:57:58.941Z,6.77
2019-01-27T13:00:35.551Z,5.80
2019-01-27T13:03:05.015Z,5.33
2019-01-27T13:05:34.279Z,5.63
2019-01-27T13:08:03.466Z,4.60
2019-01-27T13:10:32.768Z,5.97
2019-01-27T13:13:02.827Z,4.73
2019-01-27T13:15:33.229Z,5.20
2019-01-27T13:18:02.441Z,5.47
2019-01-27T13:20:31.889Z,4.53
2019-01-27T13:23:01.049Z,6.17
2019-01-27T13:25:30.200Z,5.20
2019-01-27T13:28:02.163Z,7.27
2019-01-27T13:30:31.368Z,4.20
2019-01-27T13:33:03.351Z,4.03
2019-01-27T13:35:32.748Z,3.53
2019-01-27T13:38:01.943Z,5.07
2019-01-27T13:40:31.123Z,4.03
2019-01-27T13:43:00.495Z,6.73
2019-01-27T13:45:29.950Z,5.13
2019-01-27T13:47:59.344Z,6.17
2019-01-27T13:50:28.755Z,7.40
2019-01-27T13:52:58.389Z,5.57
2019-01-27T13:55:29.434Z,5.20
2019-01-27T13:57:58.563Z,6.87
2019-01-27T14:00:33.034Z,5.27
2019-01-27T14:03:02.175Z,5.20
2019-01-27T14:05:31.391Z,6.30
2019-01-27T14:08:00.695Z,7.13
2019-01-27T14:10:30.008Z,6.33
2019-01-27T14:12:59.240Z,6.00
2019-01-27T14:15:30.237Z,6.53
2019-01-27T14:17:59.545Z,6.03
2019-01-27T14:20:28.788Z,6.40
2019-01-27T14:22:58.059Z,5.90
2019-01-27T14:25:28.072Z,6.30
2019-01-27T14:27:57.242Z,5.20
2019-01-27T14:30:31.410Z,5.50
2019-01-27T14:33:00.570Z,4.93
2019-01-27T14:35:29.889Z,4.33
2019-01-27T14:37:59.046Z,5.77
2019-01-27T14:40:28.980Z,4.90
2019-01-27T14:42:58.184Z,3.67
2019-01-27T14:45:28.661Z,3.43
2019-01-27T14:47:57.918Z,4.77
2019-01-27T14:50:32.433Z,8.03
2019-01-27T14:53:04.150Z,6.43
2019-01-27T14:55:33.301Z,6.53
2019-01-27T14:58:02.274Z,3.77
2019-01-27T15:00:36.666Z,5.57
2019-01-27T15:03:06.990Z,6.03
2019-01-27T15:05:36.215Z,9.03
2019-01-27T15:08:06.366Z,11.90
2019-01-27T15:10:35.559Z,7.50
2019-01-27T15:13:05.455Z,8.73
2019-01-27T15:15:34.806Z,7.77
2019-01-27T15:18:04.252Z,12.87
2019-01-27T15:20:36.077Z,10.20
2019-01-27T15:23:07.808Z,10.07
2019-01-27T15:25:36.980Z,10.17
2019-01-27T15:28:06.313Z,13.00
2019-01-27T15:30:35.906Z,11.50
2019-01-27T15:33:05.644Z,11.17
2019-01-27T15:35:37.013Z,9.37
2019-01-27T15:38:07.311Z,13.87
2019-01-27T15:40:36.885Z,10.97
2019-01-27T15:43:06.487Z,10.80
2019-01-27T15:45:35.714Z,9.07
2019-01-27T15:48:05.740Z,13.53
2019-01-27T15:50:34.970Z,14.27
2019-01-27T15:53:04.496Z,19.33
2019-01-27T15:55:33.700Z,10.87
2019-01-27T15:58:02.916Z,14.43
2019-01-27T16:00:32.490Z,14.10
2019-01-27T16:03:01.787Z,16.90
2019-01-27T16:05:31.361Z,12.13
2019-01-27T16:08:00.565Z,19.37
2019-01-27T16:10:29.821Z,14.40
2019-01-27T16:12:58.986Z,8.73
2019-01-27T16:15:29.783Z,21.10
2019-01-27T16:17:58.992Z,19.27
2019-01-27T16:20:30.184Z,13.20
2019-01-27T16:23:27.572Z,16.93
2019-01-27T16:25:57.798Z,8.93
2019-01-27T16:28:26.986Z,11.97
2019-01-27T16:31:07.151Z,14.10
2019-01-27T16:33:58.259Z,17.97
2019-01-27T16:36:27.734Z,19.50
2019-01-27T16:38:57.915Z,12.40
2019-01-27T16:41:27.145Z,15.23
2019-01-27T16:43:56.333Z,18.20
2019-01-27T16:46:25.506Z,11.53
2019-01-27T16:48:54.828Z,17.37
2019-01-27T16:51:23.994Z,16.23
2019-01-27T16:53:53.159Z,21.13
2019-01-27T16:56:22.461Z,18.60
2019-01-27T16:58:51.993Z,14.03
2019-01-27T17:01:21.201Z,16.57
2019-01-27T17:03:50.385Z,12.37
2019-01-27T17:06:19.945Z,14.27
2019-01-27T17:08:49.155Z,16.60
2019-01-27T17:11:18.468Z,13.90
2019-01-27T17:13:48.766Z,18.77
2019-01-27T17:16:17.979Z,15.67
2019-01-27T17:18:50.321Z,16.97
2019-01-27T17:21:19.686Z,16.63
2019-01-27T17:23:48.912Z,14.10
2019-01-27T17:26:18.548Z,13.03
2019-01-27T17:28:49.195Z,12.30
2019-01-27T17:31:18.392Z,13.07
2019-01-27T17:33:47.800Z,9.57
2019-01-27T17:36:17.315Z,12.83
2019-01-27T17:38:46.592Z,13.20
2019-01-27T17:41:15.845Z,15.67
2019-01-27T17:43:45.214Z,11.43
2019-01-27T17:46:14.561Z,19.23
2019-01-27T17:48:44.122Z,14.47
2019-01-27T17:51:13.333Z,16.27
2019-01-27T17:53:55.633Z,8.93
2019-01-27T17:56:25.118Z,11.57
2019-01-27T17:58:59.227Z,14.20
2019-01-27T18:01:56.591Z,9.20
2019-01-27T18:04:43.620Z,12.77
2019-01-27T18:07:30.167Z,12.63
2019-01-27T18:10:14.725Z,12.70
2019-01-27T18:13:21.075Z,7.17
2019-01-27T18:15:50.242Z,7.33
2019-01-27T18:18:19.991Z,10.20
2019-01-27T18:20:49.157Z,9.53
2019-01-27T18:23:19.328Z,7.97
2019-01-27T18:25:48.556Z,10.90
2019-01-27T18:28:17.769Z,10.23
2019-01-27T18:30:47.001Z,11.10
2019-01-27T18:33:16.223Z,6.13
2019-01-27T18:35:45.263Z,7.37
2019-01-27T18:38:15.048Z,9.97
2019-01-27T18:40:44.361Z,9.53
2019-01-27T18:43:14.008Z,8.27
2019-01-27T18:45:43.577Z,7.63
2019-01-27T18:48:12.990Z,6.57
2019-01-27T18:50:42.594Z,7.40
2019-01-27T18:53:23.496Z,5.87
2019-01-27T18:55:59.376Z,6.93
2019-01-27T18:58:47.860Z,6.50
2019-01-27T19:01:36.114Z,6.67
2019-01-27T19:04:27.230Z,8.17
2019-01-27T19:07:10.627Z,10.67
2019-01-27T19:09:54.946Z,9.10
2019-01-27T19:12:49.431Z,8.80
2019-01-27T19:15:42.786Z,9.97
2019-01-27T19:18:32.929Z,7.90
2019-01-27T19:21:36.459Z,8.27
2019-01-27T19:24:23.186Z,9.73
2019-01-27T19:27:10.898Z,9.67
2019-01-27T19:29:47.715Z,6.07
2019-01-27T19:32:24.844Z,13.20
2019-01-27T19:35:18.786Z,7.07
2019-01-27T19:38:07.865Z,6.67
2019-01-27T19:41:01.483Z,11.57
2019-01-27T19:43:44.856Z,6.33
2019-01-27T19:46:24.725Z,10.97
2019-01-27T19:49:16.063Z,6.70
2019-01-27T19:52:22.827Z,9.80
2019-01-27T19:55:18.372Z,10.63
2019-01-27T19:58:06.019Z,7.90
2019-01-27T20:00:46.484Z,7.60
2019-01-27T20:03:49.691Z,9.90
2019-01-27T20:06:52.987Z,13.87
2019-01-27T20:09:44.120Z,13.00
2019-01-27T20:12:32.616Z,8.80
2019-01-27T20:15:14.419Z,6.80
2019-01-27T20:18:05.864Z,17.27
2019-01-27T20:21:09.584Z,11.67
2019-01-27T20:24:00.599Z,14.13
2019-01-27T20:26:54.583Z,10.33
2019-01-27T20:29:41.704Z,17.03
2019-01-27T20:32:32.688Z,9.80
2019-01-27T20:35:22.382Z,12.40
2019-01-27T20:38:28.797Z,7.03
2019-01-27T20:41:22.981Z,11.77
2019-01-27T20:44:09.792Z,13.50
2019-01-27T20:47:06.998Z,13.13
2019-01-27T20:49:56.789Z,11.93
2019-01-27T20:52:56.608Z,10.10
2019-01-27T20:55:47.724Z,20.30
2019-01-27T20:58:24.774Z,11.77
2019-01-27T21:01:18.998Z,15.23
2019-01-27T21:04:13.242Z,18.83
2019-01-27T21:06:56.948Z,15.17
2019-01-27T21:09:45.381Z,13.50
2019-01-27T21:12:24.126Z,16.57
2019-01-27T21:15:12.172Z,16.27
2019-01-27T21:17:56.850Z,15.97
2019-01-27T21:20:26.306Z,15.57
2019-01-27T21:22:55.631Z,14.87
2019-01-27T21:25:27.800Z,17.00
2019-01-27T21:27:57.229Z,11.37
2019-01-27T21:30:26.439Z,13.10
2019-01-27T21:32:56.490Z,15.07
2019-01-27T21:35:25.728Z,13.67
2019-01-27T21:37:54.895Z,14.30
2019-01-27T21:40:24.851Z,12.43
2019-01-27T21:42:54.278Z,14.80
2019-01-27T21:45:23.466Z,9.70
2019-01-27T21:47:52.580Z,19.23
2019-01-27T21:50:22.054Z,13.73
2019-01-27T21:52:51.213Z,14.43
2019-01-27T21:55:20.582Z,12.50
2019-01-27T21:57:49.725Z,14.27
2019-01-27T22:00:21.203Z,11.43
2019-01-27T22:02:50.511Z,9.67
2019-01-27T22:05:19.642Z,10.73
2019-01-27T22:07:48.844Z,14.73
2019-01-27T22:10:18.947Z,11.63
2019-01-27T22:12:48.138Z,14.20
2019-01-27T22:15:17.300Z,7.30
2019-01-27T22:17:46.430Z,12.27
2019-01-27T22:20:16.592Z,10.73
2019-01-27T22:22:45.746Z,9.43
2019-01-27T22:25:15.268Z,11.37
2019-01-27T22:27:44.533Z,13.63
2019-01-27T22:30:21.750Z,8.53
2019-01-27T22:32:51.281Z,12.37
2019-01-27T22:35:20.554Z,11.20
2019-01-27T22:37:49.735Z,11.83
2019-01-27T22:40:21.963Z,12.27
2019-01-27T22:42:51.089Z,13.37
2019-01-27T22:45:20.251Z,13.37
2019-01-27T22:47:49.370Z,9.10
2019-01-27T22:50:22.188Z,10.80
2019-01-27T22:52:51.348Z,12.70
2019-01-27T22:55:20.510Z,7.93
2019-01-27T22:57:49.647Z,13.03
2019-01-27T23:00:55.369Z,11.23
2019-01-27T23:03:25.007Z,15.50
2019-01-27T23:05:54.170Z,13.00
2019-01-27T23:08:23.345Z,13.17
2019-01-27T23:10:52.583Z,13.37
2019-01-27T23:13:21.746Z,12.93
2019-01-27T23:15:51.149Z,14.63
2019-01-27T23:18:20.273Z,9.63
2019-01-27T23:20:49.406Z,10.77
2019-01-27T23:23:18.569Z,10.30
2019-01-27T23:25:47.930Z,11.67
2019-01-27T23:28:17.061Z,8.63
2019-01-27T23:30:46.551Z,11.53
2019-01-27T23:33:15.728Z,8.83
2019-01-27T23:35:44.998Z,10.40
2019-01-27T23:38:14.154Z,11.33
2019-01-27T23:40:43.273Z,6.30
2019-01-27T23:43:12.430Z,10.37
2019-01-27T23:45:41.639Z,11.03
2019-01-27T23:48:10.849Z,9.93
2019-01-27T23:50:40.106Z,6.97
2019-01-27T23:53:09.262Z,4.77
2019-01-27T23:55:38.427Z,8.40
2019-01-27T23:58:07.572Z,10.07
